createdAt,value
2019-02-17T00:02:21.093Z,99.90
2019-02-17T00:04:53.742Z,99.90
2019-02-17T00:07:26.390Z,99.90
2019-02-17T00:09:59.182Z,99.90
2019-02-17T00:12:31.833Z,99.90
2019-02-17T00:15:04.857Z,99.90
2019-02-17T00:17:37.608Z,99.90
2019-02-17T00:20:10.238Z,99.90
2019-02-17T00:22:42.886Z,99.90
2019-02-17T00:25:15.565Z,99.90
2019-02-17T00:27:48.198Z,99.90
2019-02-17T00:30:20.854Z,99.90
2019-02-17T00:32:53.583Z,99.90
2019-02-17T00:35:26.232Z,99.90
2019-02-17T00:37:58.890Z,99.90
2019-02-17T00:40:31.566Z,99.90
2019-02-17T00:43:04.265Z,99.90
2019-02-17T00:45:36.938Z,99.90
2019-02-17T00:48:09.587Z,99.90
2019-02-17T00:50:42.252Z,99.90
2019-02-17T00:53:14.915Z,99.90
2019-02-17T00:55:47.550Z,99.90
2019-02-17T00:58:20.181Z,99.90
2019-02-17T01:00:52.900Z,99.90
2019-02-17T01:03:25.547Z,99.90
2019-02-17T01:05:58.221Z,99.90
2019-02-17T01:08:30.867Z,99.90
2019-02-17T01:11:03.526Z,99.90
2019-02-17T01:13:36.222Z,99.90
2019-02-17T01:16:08.931Z,99.90
2019-02-17T01:18:41.575Z,99.90
2019-02-17T01:21:14.227Z,99.90
2019-02-17T01:23:46.941Z,99.90
2019-02-17T01:26:19.586Z,99.90
2019-02-17T01:28:52.238Z,99.90
2019-02-17T01:31:25.098Z,99.90
2019-02-17T01:33:59.531Z,99.90
2019-02-17T01:36:32.731Z,99.90
2019-02-17T01:39:06.217Z,99.90
2019-02-17T01:41:38.888Z,99.90
2019-02-17T01:44:11.702Z,99.90
2019-02-17T01:46:44.362Z,99.90
2019-02-17T01:49:17.274Z,99.90
2019-02-17T01:51:49.932Z,99.90
2019-02-17T01:54:22.749Z,99.90
2019-02-17T01:56:55.427Z,99.90
2019-02-17T01:59:30.622Z,99.90
2019-02-17T02:02:02.504Z,99.90
2019-02-17T02:04:35.129Z,99.90
2019-02-17T02:07:07.780Z,99.90
2019-02-17T02:09:40.679Z,99.90
2019-02-17T02:12:13.322Z,99.90
2019-02-17T02:14:45.991Z,99.90
2019-02-17T02:17:18.630Z,99.90
2019-02-17T02:19:51.274Z,99.90
2019-02-17T02:22:23.909Z,99.90
2019-02-17T02:24:56.575Z,99.90
2019-02-17T02:27:29.223Z,99.90
2019-02-17T02:30:01.876Z,99.90
2019-02-17T02:32:34.530Z,99.90
2019-02-17T02:35:07.177Z,99.90
2019-02-17T02:37:39.821Z,99.90
2019-02-17T02:40:12.466Z,99.90
2019-02-17T02:42:45.119Z,99.90
2019-02-17T02:45:17.775Z,99.90
2019-02-17T02:47:50.421Z,99.90
2019-02-17T02:50:23.079Z,99.90
2019-02-17T02:52:55.720Z,99.90
2019-02-17T02:55:28.387Z,99.90
2019-02-17T02:58:01.020Z,99.90
2019-02-17T03:00:33.699Z,99.90
2019-02-17T03:03:06.343Z,99.90
2019-02-17T03:05:39.119Z,99.90
2019-02-17T03:08:11.824Z,99.90
2019-02-17T03:10:44.517Z,99.90
2019-02-17T03:13:17.157Z,99.90
2019-02-17T03:15:49.823Z,99.90
2019-02-17T03:18:22.474Z,99.90
2019-02-17T03:20:55.170Z,99.90
2019-02-17T03:23:27.805Z,99.90
2019-02-17T03:26:00.469Z,99.90
2019-02-17T03:28:33.111Z,99.90
2019-02-17T03:31:05.755Z,99.90
2019-02-17T03:33:38.407Z,99.90
2019-02-17T03:36:11.095Z,99.90
2019-02-17T03:38:43.766Z,99.90
2019-02-17T03:41:16.430Z,99.90
2019-02-17T03:43:49.080Z,99.90
2019-02-17T03:46:21.747Z,99.90
2019-02-17T03:48:54.409Z,99.90
2019-02-17T03:51:27.069Z,99.90
2019-02-17T03:53:59.729Z,99.90
2019-02-17T03:56:32.369Z,99.90
2019-02-17T03:59:05.010Z,99.90
2019-02-17T04:01:37.659Z,99.90
2019-02-17T04:04:10.320Z,99.90
2019-02-17T04:06:43.039Z,99.90
2019-02-17T04:09:15.757Z,99.90
2019-02-17T04:11:48.410Z,99.90
2019-02-17T04:14:21.063Z,99.90
2019-02-17T04:16:53.727Z,99.90
2019-02-17T04:19:26.373Z,99.90
2019-02-17T04:21:59.054Z,99.90
2019-02-17T04:24:31.685Z,99.90
2019-02-17T04:27:04.367Z,99.90
2019-02-17T04:29:37.014Z,99.90
2019-02-17T04:32:09.668Z,99.90
2019-02-17T04:34:42.310Z,99.90
2019-02-17T04:37:15.002Z,99.90
2019-02-17T04:39:47.650Z,99.90
2019-02-17T04:42:20.301Z,99.90
2019-02-17T04:44:52.944Z,99.90
2019-02-17T04:47:25.647Z,99.90
2019-02-17T04:49:58.285Z,99.90
2019-02-17T04:52:30.953Z,99.90
2019-02-17T04:55:03.642Z,99.90
2019-02-17T04:57:36.290Z,99.90
2019-02-17T05:00:09.007Z,99.90
2019-02-17T05:02:41.676Z,99.90
2019-02-17T05:05:14.304Z,99.90
2019-02-17T05:07:46.953Z,99.90
2019-02-17T05:10:19.657Z,99.90
2019-02-17T05:12:52.332Z,99.90
2019-02-17T05:15:24.974Z,99.90
2019-02-17T05:17:57.639Z,99.90
2019-02-17T05:20:30.287Z,99.90
2019-02-17T05:23:02.947Z,99.90
2019-02-17T05:25:35.586Z,99.90
2019-02-17T05:28:08.244Z,99.90
2019-02-17T05:30:52.169Z,99.90
2019-02-17T05:33:15.280Z,99.90
2019-02-17T05:35:47.919Z,99.90
2019-02-17T05:38:20.586Z,99.90
2019-02-17T05:40:53.231Z,99.90
2019-02-17T05:43:25.904Z,99.90
2019-02-17T05:45:58.541Z,99.90
2019-02-17T05:48:31.199Z,99.90
2019-02-17T05:51:03.841Z,99.90
2019-02-17T05:53:36.492Z,99.90
2019-02-17T05:56:09.144Z,99.90
2019-02-17T05:58:41.790Z,99.90
2019-02-17T06:01:14.455Z,99.90
2019-02-17T06:03:47.115Z,99.90
2019-02-17T06:06:19.779Z,99.90
2019-02-17T06:08:52.561Z,99.90
2019-02-17T06:11:25.216Z,99.90
2019-02-17T06:13:57.951Z,99.90
2019-02-17T06:16:30.598Z,99.90
2019-02-17T06:19:03.257Z,99.90
2019-02-17T06:21:35.940Z,99.90
2019-02-17T06:24:08.680Z,99.90
2019-02-17T06:26:41.326Z,99.90
2019-02-17T06:29:13.976Z,99.90
2019-02-17T06:31:46.628Z,99.90
2019-02-17T06:34:19.265Z,99.90
2019-02-17T06:36:51.931Z,99.90
2019-02-17T06:39:24.580Z,99.90
2019-02-17T06:41:57.255Z,99.90
2019-02-17T06:44:29.909Z,99.90
2019-02-17T06:47:02.584Z,99.90
2019-02-17T06:49:36.231Z,99.90
2019-02-17T06:52:08.892Z,99.90
2019-02-17T06:54:41.619Z,99.90
2019-02-17T06:57:14.283Z,99.90
2019-02-17T06:59:46.926Z,99.90
2019-02-17T07:02:19.586Z,99.90
2019-02-17T07:04:52.246Z,99.90
2019-02-17T07:07:24.947Z,99.90
2019-02-17T07:09:57.666Z,99.90
2019-02-17T07:12:30.309Z,99.90
2019-02-17T07:15:03.048Z,99.90
2019-02-17T07:17:35.705Z,99.90
2019-02-17T07:20:09.778Z,99.90
2019-02-17T07:22:42.594Z,99.90
2019-02-17T07:25:15.230Z,99.90
2019-02-17T07:27:47.889Z,99.90
2019-02-17T07:30:20.543Z,99.90
2019-02-17T07:32:53.302Z,99.90
2019-02-17T07:35:25.954Z,99.90
2019-02-17T07:37:58.628Z,99.90
2019-02-17T07:40:31.271Z,99.90
2019-02-17T07:43:03.919Z,99.90
2019-02-17T07:45:36.550Z,99.90
2019-02-17T07:48:09.208Z,99.90
2019-02-17T07:50:41.859Z,99.90
2019-02-17T07:53:14.511Z,99.90
2019-02-17T07:55:47.172Z,99.90
2019-02-17T07:58:20.107Z,99.90
2019-02-17T08:00:52.842Z,99.90
2019-02-17T08:03:25.511Z,99.90
2019-02-17T08:05:58.150Z,99.90
2019-02-17T08:08:30.797Z,99.90
2019-02-17T08:11:04.431Z,99.90
2019-02-17T08:13:37.186Z,99.90
2019-02-17T08:16:09.814Z,99.90
2019-02-17T08:18:42.475Z,99.90
2019-02-17T08:21:15.171Z,99.90
2019-02-17T08:23:47.952Z,99.90
2019-02-17T08:26:20.684Z,99.90
2019-02-17T08:28:53.343Z,99.90
2019-02-17T08:31:26.111Z,99.90
2019-02-17T08:33:58.849Z,99.90
2019-02-17T08:36:31.522Z,99.90
2019-02-17T08:39:05.049Z,99.90
2019-02-17T08:41:37.779Z,99.90
2019-02-17T08:44:10.631Z,99.90
2019-02-17T08:46:45.059Z,99.90
2019-02-17T08:49:17.997Z,99.90
2019-02-17T08:51:50.747Z,99.90
2019-02-17T08:54:23.514Z,99.90
2019-02-17T08:56:56.202Z,99.90
2019-02-17T08:59:29.057Z,99.90
2019-02-17T09:02:05.903Z,99.90
2019-02-17T09:04:36.231Z,99.90
2019-02-17T09:07:08.863Z,99.90
2019-02-17T09:09:41.523Z,99.90
2019-02-17T09:12:14.162Z,99.90
2019-02-17T09:14:46.820Z,99.90
2019-02-17T09:17:19.463Z,99.90
2019-02-17T09:19:52.192Z,99.90
2019-02-17T09:22:24.854Z,99.90
2019-02-17T09:24:57.517Z,99.90
2019-02-17T09:27:30.170Z,99.90
2019-02-17T09:30:03.002Z,99.90
2019-02-17T09:32:35.688Z,99.90
2019-02-17T09:35:08.353Z,99.90
2019-02-17T09:37:41.002Z,99.90
2019-02-17T09:40:13.757Z,99.90
2019-02-17T09:42:46.442Z,99.90
2019-02-17T09:45:19.101Z,99.90
2019-02-17T09:47:51.750Z,99.90
2019-02-17T09:50:24.467Z,99.90
2019-02-17T09:52:57.123Z,99.90
2019-02-17T09:55:30.749Z,99.90
2019-02-17T09:58:03.402Z,99.90
2019-02-17T10:00:36.091Z,99.90
2019-02-17T10:03:08.753Z,99.90
2019-02-17T10:05:41.402Z,99.90
2019-02-17T10:08:14.065Z,99.90
2019-02-17T10:10:47.022Z,99.90
2019-02-17T10:13:19.646Z,99.90
2019-02-17T10:15:52.301Z,99.90
2019-02-17T10:18:25.028Z,99.90
2019-02-17T10:20:57.691Z,99.90
2019-02-17T10:23:30.337Z,99.90
2019-02-17T10:26:02.994Z,99.90
2019-02-17T10:28:42.009Z,99.90
2019-02-17T10:31:10.038Z,99.90
2019-02-17T10:33:42.697Z,99.90
2019-02-17T10:36:15.347Z,99.90
2019-02-17T10:38:48.028Z,99.90
2019-02-17T10:41:20.677Z,99.90
2019-02-17T10:43:53.318Z,99.90
2019-02-17T10:46:25.999Z,99.90
2019-02-17T10:48:58.730Z,99.90
2019-02-17T10:51:31.387Z,99.90
2019-02-17T10:54:04.848Z,99.90
2019-02-17T10:56:38.411Z,99.90
2019-02-17T10:59:11.907Z,99.90
2019-02-17T11:01:45.486Z,99.90
2019-02-17T11:04:18.970Z,99.90
2019-02-17T11:06:52.527Z,99.60
2019-02-17T11:09:26.050Z,99.90
2019-02-17T11:11:59.609Z,99.20
2019-02-17T11:14:33.121Z,99.20
2019-02-17T11:17:06.676Z,98.50
2019-02-17T11:19:40.508Z,98.50
2019-02-17T11:22:22.985Z,99.10
2019-02-17T11:24:49.281Z,98.80
2019-02-17T11:27:22.808Z,98.30
2019-02-17T11:29:56.365Z,97.90
2019-02-17T11:32:32.122Z,97.70
2019-02-17T11:35:05.329Z,97.60
2019-02-17T11:37:39.001Z,97.50
2019-02-17T11:40:12.590Z,96.80
2019-02-17T11:42:46.197Z,96.60
2019-02-17T11:45:19.729Z,97.00
2019-02-17T11:47:52.845Z,96.70
2019-02-17T11:50:25.488Z,97.40
2019-02-17T11:52:58.129Z,98.00
2019-02-17T11:55:30.863Z,96.40
2019-02-17T11:58:03.618Z,95.90
2019-02-17T12:00:36.380Z,96.20
2019-02-17T12:03:09.022Z,95.50
2019-02-17T12:05:41.978Z,96.20
2019-02-17T12:08:14.636Z,95.30
2019-02-17T12:10:47.309Z,95.60
2019-02-17T12:13:20.003Z,94.40
2019-02-17T12:15:52.691Z,94.20
2019-02-17T12:18:25.347Z,94.40
2019-02-17T12:20:58.042Z,93.60
2019-02-17T12:23:30.709Z,92.90
2019-02-17T12:26:03.396Z,92.20
2019-02-17T12:28:36.034Z,93.50
2019-02-17T12:31:08.731Z,92.50
2019-02-17T12:33:41.379Z,92.40
2019-02-17T12:36:14.043Z,91.30
2019-02-17T12:38:46.984Z,91.00
2019-02-17T12:41:19.649Z,90.50
2019-02-17T12:43:52.319Z,90.00
2019-02-17T12:46:24.978Z,88.50
2019-02-17T12:48:57.778Z,87.50
2019-02-17T12:51:30.460Z,86.30
2019-02-17T12:54:03.230Z,84.50
2019-02-17T12:56:35.890Z,85.50
2019-02-17T12:59:08.534Z,85.90
2019-02-17T13:01:41.186Z,85.20
2019-02-17T13:04:13.834Z,84.60
2019-02-17T13:06:46.510Z,83.70
2019-02-17T13:09:19.154Z,81.30
2019-02-17T13:11:51.811Z,81.00
2019-02-17T13:14:24.464Z,80.40
2019-02-17T13:16:57.110Z,79.30
2019-02-17T13:19:29.754Z,81.40
2019-02-17T13:22:02.573Z,77.30
2019-02-17T13:24:35.248Z,76.00
2019-02-17T13:27:07.892Z,77.40
2019-02-17T13:29:40.545Z,80.50
2019-02-17T13:32:13.196Z,77.60
2019-02-17T13:34:45.838Z,77.40
2019-02-17T13:37:18.499Z,77.60
2019-02-17T13:39:51.250Z,77.60
2019-02-17T13:42:23.906Z,76.60
2019-02-17T13:44:56.554Z,76.50
2019-02-17T13:47:29.206Z,75.40
2019-02-17T13:50:01.862Z,74.00
2019-02-17T13:52:34.529Z,74.70
2019-02-17T13:55:07.915Z,73.50
2019-02-17T13:57:40.626Z,72.60
2019-02-17T14:00:14.459Z,71.20
2019-02-17T14:02:47.101Z,69.20
2019-02-17T14:05:19.767Z,69.90
2019-02-17T14:07:52.421Z,68.90
2019-02-17T14:10:25.074Z,69.60
2019-02-17T14:12:57.730Z,68.80
2019-02-17T14:15:30.507Z,67.30
2019-02-17T14:18:03.226Z,69.20
2019-02-17T14:20:35.865Z,68.20
2019-02-17T14:23:08.546Z,68.50
2019-02-17T14:25:41.212Z,69.00
2019-02-17T14:28:13.942Z,67.90
2019-02-17T14:30:46.557Z,67.60
2019-02-17T14:33:19.294Z,67.30
2019-02-17T14:35:52.113Z,67.40
2019-02-17T14:38:24.822Z,66.10
2019-02-17T14:40:57.490Z,66.40
2019-02-17T14:43:30.219Z,66.00
2019-02-17T14:46:03.031Z,66.60
2019-02-17T14:48:36.029Z,67.00
2019-02-17T14:51:10.133Z,66.60
2019-02-17T14:53:42.991Z,66.50
2019-02-17T14:56:15.767Z,65.70
2019-02-17T14:58:48.424Z,65.50
2019-02-17T15:01:21.081Z,65.30
2019-02-17T15:03:53.745Z,65.90
2019-02-17T15:06:26.374Z,67.10
2019-02-17T15:08:59.072Z,65.90
2019-02-17T15:11:31.708Z,67.70
2019-02-17T15:14:04.379Z,66.50
2019-02-17T15:16:37.059Z,66.70
2019-02-17T15:19:09.739Z,67.60
2019-02-17T15:21:42.395Z,67.80
2019-02-17T15:24:15.050Z,69.00
2019-02-17T15:26:47.705Z,69.60
2019-02-17T15:29:20.358Z,69.10
2019-02-17T15:31:53.018Z,70.00
2019-02-17T15:34:25.698Z,70.50
2019-02-17T15:36:58.374Z,71.40
2019-02-17T15:39:31.110Z,71.90
2019-02-17T15:42:03.763Z,71.90
2019-02-17T15:44:36.459Z,72.50
2019-02-17T15:47:09.133Z,74.90
2019-02-17T15:49:41.781Z,72.30
2019-02-17T15:52:14.543Z,73.80
2019-02-17T15:54:47.226Z,73.70
2019-02-17T15:57:19.883Z,73.30
2019-02-17T15:59:52.623Z,73.40
2019-02-17T16:02:25.359Z,73.00
2019-02-17T16:04:58.042Z,74.30
2019-02-17T16:07:30.724Z,73.80
2019-02-17T16:10:04.048Z,74.20
2019-02-17T16:12:36.690Z,74.20
2019-02-17T16:15:11.546Z,75.70
2019-02-17T16:17:44.219Z,74.60
2019-02-17T16:20:16.872Z,74.90
2019-02-17T16:22:49.525Z,75.60
2019-02-17T16:25:22.166Z,76.00
2019-02-17T16:27:54.864Z,75.20
2019-02-17T16:30:27.529Z,75.20
2019-02-17T16:33:00.421Z,74.90
2019-02-17T16:35:33.062Z,75.70
2019-02-17T16:38:05.742Z,75.90
2019-02-17T16:40:38.396Z,75.70
2019-02-17T16:43:11.122Z,75.30
2019-02-17T16:45:43.866Z,75.70
2019-02-17T16:48:16.522Z,75.00
2019-02-17T16:50:49.183Z,75.50
2019-02-17T16:53:21.826Z,75.10
2019-02-17T16:55:54.594Z,74.80
2019-02-17T16:58:27.270Z,74.90
2019-02-17T17:00:59.945Z,75.00
2019-02-17T17:03:32.897Z,75.20
2019-02-17T17:06:05.562Z,76.20
2019-02-17T17:08:38.236Z,76.10
2019-02-17T17:11:10.874Z,76.60
2019-02-17T17:13:43.818Z,76.70
2019-02-17T17:16:16.936Z,77.60
2019-02-17T17:18:49.720Z,76.70
2019-02-17T17:21:22.653Z,77.90
2019-02-17T17:23:55.697Z,78.00
2019-02-17T17:26:28.314Z,78.40
2019-02-17T17:29:01.380Z,79.70
2019-02-17T17:31:35.617Z,80.50
2019-02-17T17:34:08.473Z,82.80
2019-02-17T17:36:41.363Z,80.60
2019-02-17T17:39:14.279Z,80.90
2019-02-17T17:41:46.938Z,82.30
2019-02-17T17:44:19.701Z,82.80
2019-02-17T17:46:52.382Z,83.50
2019-02-17T17:49:25.073Z,84.50
2019-02-17T17:52:00.829Z,85.10
2019-02-17T17:54:36.509Z,85.00
2019-02-17T17:57:09.441Z,85.80
2019-02-17T17:59:44.823Z,85.80
2019-02-17T18:02:20.506Z,86.60
2019-02-17T18:04:53.181Z,87.40
2019-02-17T18:07:29.008Z,86.80
2019-02-17T18:10:01.666Z,86.70
2019-02-17T18:12:34.593Z,86.70
2019-02-17T18:15:10.065Z,86.40
2019-02-17T18:17:42.903Z,85.60
2019-02-17T18:20:18.751Z,85.10
2019-02-17T18:22:51.638Z,85.00
2019-02-17T18:25:24.574Z,84.00
2019-02-17T18:27:57.300Z,82.80
2019-02-17T18:30:33.016Z,82.30
2019-02-17T18:33:05.805Z,82.00
2019-02-17T18:35:38.612Z,81.60
2019-02-17T18:38:11.493Z,81.80
2019-02-17T18:40:46.120Z,81.30
2019-02-17T18:43:18.745Z,82.20
2019-02-17T18:45:51.648Z,82.00
2019-02-17T18:48:24.502Z,81.60
2019-02-17T18:50:59.472Z,80.40
2019-02-17T18:53:31.705Z,80.70
2019-02-17T18:56:04.383Z,80.30
2019-02-17T18:58:37.341Z,81.10
2019-02-17T19:01:10.147Z,83.20
2019-02-17T19:03:45.605Z,81.60
2019-02-17T19:06:18.369Z,79.80
2019-02-17T19:08:51.002Z,79.50
2019-02-17T19:11:23.746Z,79.80
2019-02-17T19:13:56.520Z,79.50
2019-02-17T19:16:29.303Z,81.70
2019-02-17T19:19:01.993Z,79.20
2019-02-17T19:21:34.645Z,79.90
2019-02-17T19:24:07.660Z,79.70
2019-02-17T19:26:43.453Z,79.20
2019-02-17T19:29:16.483Z,79.40
2019-02-17T19:31:49.239Z,80.60
2019-02-17T19:34:21.932Z,80.60
2019-02-17T19:36:54.962Z,80.20
2019-02-17T19:39:27.654Z,80.70
2019-02-17T19:42:00.395Z,81.30
2019-02-17T19:44:33.038Z,81.70
2019-02-17T19:47:05.782Z,81.60
2019-02-17T19:49:38.631Z,82.80
2019-02-17T19:52:11.500Z,81.70
2019-02-17T19:54:44.336Z,81.70
2019-02-17T19:57:17.179Z,82.30
2019-02-17T19:59:50.005Z,83.10
2019-02-17T20:02:22.740Z,82.50
2019-02-17T20:04:55.415Z,82.40
2019-02-17T20:07:28.085Z,83.20
2019-02-17T20:10:00.779Z,82.30
2019-02-17T20:12:33.426Z,82.50
2019-02-17T20:15:06.118Z,82.70
2019-02-17T20:17:38.754Z,82.50
2019-02-17T20:20:11.488Z,82.60
2019-02-17T20:22:44.154Z,83.10
2019-02-17T20:25:16.805Z,83.10
2019-02-17T20:27:49.449Z,83.30
2019-02-17T20:30:22.165Z,84.10
2019-02-17T20:32:54.829Z,86.10
2019-02-17T20:35:27.618Z,86.20
2019-02-17T20:38:00.275Z,87.00
2019-02-17T20:40:32.946Z,89.50
2019-02-17T20:43:05.593Z,89.10
2019-02-17T20:45:38.269Z,89.90
2019-02-17T20:48:10.979Z,90.30
2019-02-17T20:50:43.634Z,90.50
2019-02-17T20:53:16.286Z,90.70
2019-02-17T20:55:48.939Z,92.10
2019-02-17T20:58:21.586Z,92.00
2019-02-17T21:00:54.246Z,91.50
2019-02-17T21:03:26.895Z,92.00
2019-02-17T21:05:59.551Z,92.30
2019-02-17T21:08:32.265Z,92.90
2019-02-17T21:11:04.928Z,93.80
2019-02-17T21:13:37.562Z,93.50
2019-02-17T21:16:10.215Z,93.50
2019-02-17T21:18:42.867Z,93.80
2019-02-17T21:21:15.534Z,94.20
2019-02-17T21:23:48.150Z,94.60
2019-02-17T21:26:26.021Z,95.40
2019-02-17T21:28:55.245Z,95.60
2019-02-17T21:31:27.895Z,95.30
2019-02-17T21:34:00.552Z,95.20
2019-02-17T21:36:33.223Z,95.30
2019-02-17T21:39:05.864Z,95.80
2019-02-17T21:41:38.593Z,96.40
2019-02-17T21:44:11.234Z,96.40
2019-02-17T21:46:43.887Z,96.20
2019-02-17T21:49:16.527Z,96.90
2019-02-17T21:51:49.174Z,97.40
2019-02-17T21:54:21.819Z,96.90
2019-02-17T21:56:54.496Z,97.10
2019-02-17T21:59:27.159Z,97.30
2019-02-17T22:01:59.802Z,97.40
2019-02-17T22:04:32.478Z,98.10
2019-02-17T22:07:05.118Z,97.40
2019-02-17T22:09:37.814Z,98.10
2019-02-17T22:12:10.466Z,98.40
2019-02-17T22:14:43.105Z,98.30
2019-02-17T22:17:15.754Z,98.90
2019-02-17T22:19:48.414Z,98.70
2019-02-17T22:22:21.074Z,99.30
2019-02-17T22:24:54.188Z,99.50
2019-02-17T22:27:26.845Z,99.40
2019-02-17T22:29:59.485Z,99.90
2019-02-17T22:32:32.125Z,99.90
2019-02-17T22:35:04.831Z,99.90
2019-02-17T22:37:37.526Z,99.90
2019-02-17T22:40:10.178Z,99.90
2019-02-17T22:42:42.826Z,99.90
2019-02-17T22:45:15.483Z,99.90
2019-02-17T22:47:59.927Z,99.90
2019-02-17T22:50:33.395Z,99.90
2019-02-17T22:53:06.185Z,99.90
2019-02-17T22:55:39.484Z,99.90
2019-02-17T22:58:12.151Z,99.90
2019-02-17T23:00:44.883Z,99.90
2019-02-17T23:03:17.526Z,99.90
2019-02-17T23:05:50.170Z,99.90
2019-02-17T23:08:22.814Z,99.90
2019-02-17T23:10:55.490Z,99.90
2019-02-17T23:13:28.130Z,99.90
2019-02-17T23:16:00.770Z,99.90
2019-02-17T23:18:33.436Z,99.90
2019-02-17T23:21:06.091Z,99.90
2019-02-17T23:23:38.727Z,99.90
2019-02-17T23:26:11.373Z,99.90
2019-02-17T23:28:44.038Z,99.90
2019-02-17T23:31:16.674Z,99.90
2019-02-17T23:33:49.324Z,99.90
2019-02-17T23:36:21.982Z,99.90
2019-02-17T23:38:54.663Z,99.90
2019-02-17T23:41:27.310Z,99.90
2019-02-17T23:44:00.123Z,99.90
2019-02-17T23:46:32.750Z,99.90
2019-02-17T23:49:05.399Z,99.90
2019-02-17T23:51:38.039Z,99.90
2019-02-17T23:54:10.755Z,99.90
2019-02-17T23:56:43.399Z,99.90
2019-02-17T23:59:16.059Z,99.90
